sensor_id;sensor_type;location;lat;lon;timestamp;pressure;altitude;pressure_sealevel;temperature;humidity
69306;BME280;56427;51.580;4.656;2024-02-26T00:02:06;99833.53;;;6.27;100.00
69306;BME280;56427;51.580;4.656;2024-02-26T00:04:32;99829.22;;;6.27;100.00
69306;BME280;56427;51.580;4.656;2024-02-26T00:06:57;99832.63;;;6.28;100.00
69306;BME280;56427;51.580;4.656;2024-02-26T00:09:23;99835.91;;;6.31;100.00
69306;BME280;56427;51.580;4.656;2024-02-26T00:11:48;99830.59;;;6.34;100.00
69306;BME280;56427;51.580;4.656;2024-02-26T00:14:13;99825.44;;;6.34;100.00
69306;BME280;56427;51.580;4.656;2024-02-26T00:16:42;99825.44;;;6.34;100.00
69306;BME280;56427;51.580;4.656;2024-02-26T00:19:08;99814.31;;;6.34;100.00
69306;BME280;56427;51.580;4.656;2024-02-26T00:21:33;99828.19;;;6.31;100.00
69306;BME280;56427;51.580;4.656;2024-02-26T00:23:58;99831.88;;;6.26;100.00
69306;BME280;56427;51.580;4.656;2024-02-26T00:26:24;99822.41;;;6.26;100.00
69306;BME280;56427;51.580;4.656;2024-02-26T00:28:49;99822.69;;;6.20;100.00
69306;BME280;56427;51.580;4.656;2024-02-26T00:31:14;99815.88;;;6.19;100.00
69306;BME280;56427;51.580;4.656;2024-02-26T00:33:39;99821.94;;;6.18;100.00
69306;BME280;56427;51.580;4.656;2024-02-26T00:36:05;99820.75;;;6.25;100.00
69306;BME280;56427;51.580;4.656;2024-02-26T00:38:30;99818.91;;;6.27;100.00
69306;BME280;56427;51.580;4.656;2024-02-26T00:40:56;99816.50;;;6.24;100.00
69306;BME280;56427;51.580;4.656;2024-02-26T00:43:21;99806.03;;;6.27;100.00
69306;BME280;56427;51.580;4.656;2024-02-26T00:45:46;99819.16;;;6.22;100.00
69306;BME280;56427;51.580;4.656;2024-02-26T00:48:12;99824.44;;;6.19;100.00
69306;BME280;56427;51.580;4.656;2024-02-26T00:50:39;99821.03;;;6.19;100.00
69306;BME280;56427;51.580;4.656;2024-02-26T00:53:05;99825.44;;;6.17;100.00
69306;BME280;56427;51.580;4.656;2024-02-26T00:55:30;99831.31;;;6.19;100.00
69306;BME280;56427;51.580;4.656;2024-02-26T00:57:56;99836.91;;;6.10;100.00
69306;BME280;56427;51.580;4.656;2024-02-26T01:00:21;99833.56;;;6.08;100.00
69306;BME280;56427;51.580;4.656;2024-02-26T01:02:46;99837.25;;;6.02;100.00
69306;BME280;56427;51.580;4.656;2024-02-26T01:05:12;99845.88;;;6.01;100.00
69306;BME280;56427;51.580;4.656;2024-02-26T01:07:38;99838.84;;;6.05;100.00
69306;BME280;56427;51.580;4.656;2024-02-26T01:10:05;99834.75;;;6.01;100.00
69306;BME280;56427;51.580;4.656;2024-02-26T01:12:31;99834.75;;;6.01;100.00
69306;BME280;56427;51.580;4.656;2024-02-26T01:14:56;99833.00;;;6.01;100.00
69306;BME280;56427;51.580;4.656;2024-02-26T01:17:22;99818.31;;;6.03;100.00
69306;BME280;56427;51.580;4.656;2024-02-26T01:19:47;99828.56;;;6.05;100.00
69306;BME280;56427;51.580;4.656;2024-02-26T01:22:12;99839.78;;;6.04;100.00
69306;BME280;56427;51.580;4.656;2024-02-26T01:24:38;99845.03;;;6.01;100.00
69306;BME280;56427;51.580;4.656;2024-02-26T01:27:03;99842.47;;;6.01;100.00
69306;BME280;56427;51.580;4.656;2024-02-26T01:29:29;99839.63;;;6.07;100.00
69306;BME280;56427;51.580;4.656;2024-02-26T01:31:54;99841.16;;;6.11;100.00
69306;BME280;56427;51.580;4.656;2024-02-26T01:34:20;99829.19;;;6.10;100.00
69306;BME280;56427;51.580;4.656;2024-02-26T01:36:45;99837.47;;;6.16;100.00
69306;BME280;56427;51.580;4.656;2024-02-26T01:39:11;99838.22;;;6.18;100.00
69306;BME280;56427;51.580;4.656;2024-02-26T01:41:38;99846.78;;;6.19;100.00
69306;BME280;56427;51.580;4.656;2024-02-26T01:44:03;99857.78;;;6.22;100.00
69306;BME280;56427;51.580;4.656;2024-02-26T01:46:30;99854.44;;;6.20;100.00
69306;BME280;56427;51.580;4.656;2024-02-26T01:48:57;99846.63;;;6.22;100.00
69306;BME280;56427;51.580;4.656;2024-02-26T01:51:23;99854.78;;;6.13;100.00
69306;BME280;56427;51.580;4.656;2024-02-26T01:53:48;99855.69;;;6.12;100.00
69306;BME280;56427;51.580;4.656;2024-02-26T01:56:15;99859.38;;;6.06;100.00
69306;BME280;56427;51.580;4.656;2024-02-26T01:58:42;99874.25;;;6.00;100.00
69306;BME280;56427;51.580;4.656;2024-02-26T02:01:08;99854.84;;;5.92;100.00
69306;BME280;56427;51.580;4.656;2024-02-26T02:03:35;99858.34;;;5.90;100.00
69306;BME280;56427;51.580;4.656;2024-02-26T02:06:01;99851.75;;;5.84;100.00
69306;BME280;56427;51.580;4.656;2024-02-26T02:08:27;99859.59;;;5.81;100.00
69306;BME280;56427;51.580;4.656;2024-02-26T02:10:52;99864.84;;;5.80;100.00
69306;BME280;56427;51.580;4.656;2024-02-26T02:13:18;99863.38;;;5.74;100.00
69306;BME280;56427;51.580;4.656;2024-02-26T02:15:43;99862.66;;;5.71;100.00
69306;BME280;56427;51.580;4.656;2024-02-26T02:18:08;99867.78;;;5.71;100.00
69306;BME280;56427;51.580;4.656;2024-02-26T02:20:35;99874.81;;;5.67;100.00
69306;BME280;56427;51.580;4.656;2024-02-26T02:23:01;99873.28;;;5.63;100.00
69306;BME280;56427;51.580;4.656;2024-02-26T02:25:27;99875.84;;;5.63;100.00
69306;BME280;56427;51.580;4.656;2024-02-26T02:27:55;99876.00;;;5.60;100.00
69306;BME280;56427;51.580;4.656;2024-02-26T02:30:24;99879.59;;;5.56;100.00
69306;BME280;56427;51.580;4.656;2024-02-26T02:32:50;99882.50;;;5.48;100.00
69306;BME280;56427;51.580;4.656;2024-02-26T02:35:16;99885.25;;;5.44;100.00
69306;BME280;56427;51.580;4.656;2024-02-26T02:37:41;99884.69;;;5.37;100.00
69306;BME280;56427;51.580;4.656;2024-02-26T02:40:07;99891.56;;;5.36;100.00
69306;BME280;56427;51.580;4.656;2024-02-26T02:42:32;99886.75;;;5.29;100.00
69306;BME280;56427;51.580;4.656;2024-02-26T02:44:58;99888.50;;;5.28;100.00
69306;BME280;56427;51.580;4.656;2024-02-26T02:47:23;99895.47;;;5.25;100.00
69306;BME280;56427;51.580;4.656;2024-02-26T02:49:48;99903.25;;;5.23;100.00
69306;BME280;56427;51.580;4.656;2024-02-26T02:52:13;99893.09;;;5.20;100.00
69306;BME280;56427;51.580;4.656;2024-02-26T02:54:39;99892.34;;;5.18;100.00
69306;BME280;56427;51.580;4.656;2024-02-26T02:57:07;99887.38;;;5.13;100.00
69306;BME280;56427;51.580;4.656;2024-02-26T02:59:33;99891.81;;;5.10;100.00
69306;BME280;56427;51.580;4.656;2024-02-26T03:01:58;99890.25;;;5.06;100.00
69306;BME280;56427;51.580;4.656;2024-02-26T03:04:23;99904.84;;;5.05;100.00
69306;BME280;56427;51.580;4.656;2024-02-26T03:06:49;99891.41;;;4.99;100.00
69306;BME280;56427;51.580;4.656;2024-02-26T03:09:14;99885.53;;;4.95;100.00
69306;BME280;56427;51.580;4.656;2024-02-26T03:11:39;99897.63;;;4.93;100.00
69306;BME280;56427;51.580;4.656;2024-02-26T03:14:05;99893.50;;;4.89;100.00
69306;BME280;56427;51.580;4.656;2024-02-26T03:16:31;99907.25;;;4.88;100.00
69306;BME280;56427;51.580;4.656;2024-02-26T03:18:56;99907.50;;;4.82;100.00
69306;BME280;56427;51.580;4.656;2024-02-26T03:21:22;99905.81;;;4.81;100.00
69306;BME280;56427;51.580;4.656;2024-02-26T03:23:47;99906.00;;;4.76;100.00
69306;BME280;56427;51.580;4.656;2024-02-26T03:26:12;99905.22;;;4.74;100.00
69306;BME280;56427;51.580;4.656;2024-02-26T03:28:40;99910.38;;;4.74;100.00
69306;BME280;56427;51.580;4.656;2024-02-26T03:31:05;99905.34;;;4.71;100.00
69306;BME280;56427;51.580;4.656;2024-02-26T03:33:30;99901.94;;;4.71;100.00
69306;BME280;56427;51.580;4.656;2024-02-26T03:35:56;99907.13;;;4.69;100.00
69306;BME280;56427;51.580;4.656;2024-02-26T03:38:21;99914.91;;;4.68;100.00
69306;BME280;56427;51.580;4.656;2024-02-26T03:40:46;99914.16;;;4.66;100.00
69306;BME280;56427;51.580;4.656;2024-02-26T03:43:12;99906.47;;;4.64;100.00
69306;BME280;56427;51.580;4.656;2024-02-26T03:45:37;99904.75;;;4.65;100.00
69306;BME280;56427;51.580;4.656;2024-02-26T03:48:03;99908.28;;;4.62;100.00
69306;BME280;56427;51.580;4.656;2024-02-26T03:50:28;99907.38;;;4.63;100.00
69306;BME280;56427;51.580;4.656;2024-02-26T03:52:54;99910.84;;;4.62;100.00
69306;BME280;56427;51.580;4.656;2024-02-26T03:55:19;99914.31;;;4.61;100.00
69306;BME280;56427;51.580;4.656;2024-02-26T03:57:50;99915.97;;;4.62;100.00
69306;BME280;56427;51.580;4.656;2024-02-26T04:00:15;99917.66;;;4.63;100.00
69306;BME280;56427;51.580;4.656;2024-02-26T04:02:41;99924.59;;;4.61;100.00
69306;BME280;56427;51.580;4.656;2024-02-26T04:05:09;99916.81;;;4.63;100.00
69306;BME280;56427;51.580;4.656;2024-02-26T04:07:35;99915.16;;;4.62;100.00
69306;BME280;56427;51.580;4.656;2024-02-26T04:10:01;99923.75;;;4.60;100.00
69306;BME280;56427;51.580;4.656;2024-02-26T04:12:28;99910.00;;;4.62;100.00
69306;BME280;56427;51.580;4.656;2024-02-26T04:14:54;99915.22;;;4.60;100.00
69306;BME280;56427;51.580;4.656;2024-02-26T04:17:19;99920.38;;;4.58;100.00
69306;BME280;56427;51.580;4.656;2024-02-26T04:19:44;99917.81;;;4.58;100.00
69306;BME280;56427;51.580;4.656;2024-02-26T04:22:10;99930.72;;;4.57;100.00
69306;BME280;56427;51.580;4.656;2024-02-26T04:24:36;99924.69;;;4.58;100.00
69306;BME280;56427;51.580;4.656;2024-02-26T04:27:01;99929.00;;;4.57;100.00
69306;BME280;56427;51.580;4.656;2024-02-26T04:29:27;99923.16;;;4.54;100.00
69306;BME280;56427;51.580;4.656;2024-02-26T04:31:52;99929.13;;;4.54;100.00
69306;BME280;56427;51.580;4.656;2024-02-26T04:34:17;99941.16;;;4.52;100.00
69306;BME280;56427;51.580;4.656;2024-02-26T04:36:43;99940.34;;;4.52;100.00
69306;BME280;56427;51.580;4.656;2024-02-26T04:39:09;99940.31;;;4.53;100.00
69306;BME280;56427;51.580;4.656;2024-02-26T04:41:35;99945.38;;;4.55;100.00
69306;BME280;56427;51.580;4.656;2024-02-26T04:44:00;99949.75;;;4.53;100.00
69306;BME280;56427;51.580;4.656;2024-02-26T04:46:27;99956.53;;;4.54;100.00
69306;BME280;56427;51.580;4.656;2024-02-26T04:48:53;99950.59;;;4.52;100.00
69306;BME280;56427;51.580;4.656;2024-02-26T04:51:19;99943.69;;;4.54;100.00
69306;BME280;56427;51.580;4.656;2024-02-26T04:53:44;99957.31;;;4.56;100.00
69306;BME280;56427;51.580;4.656;2024-02-26T04:56:09;99955.66;;;4.55;100.00
69306;BME280;56427;51.580;4.656;2024-02-26T04:58:34;99952.06;;;4.59;100.00
69306;BME280;56427;51.580;4.656;2024-02-26T05:01:00;99965.00;;;4.56;100.00
69306;BME280;56427;51.580;4.656;2024-02-26T05:03:25;99953.13;;;4.53;100.00
69306;BME280;56427;51.580;4.656;2024-02-26T05:05:50;99954.75;;;4.56;100.00
69306;BME280;56427;51.580;4.656;2024-02-26T05:08:16;99957.31;;;4.56;100.00
69306;BME280;56427;51.580;4.656;2024-02-26T05:10:41;99963.34;;;4.55;100.00
69306;BME280;56427;51.580;4.656;2024-02-26T05:13:08;99955.41;;;4.61;100.00
69306;BME280;56427;51.580;4.656;2024-02-26T05:15:33;99950.22;;;4.63;100.00
69306;BME280;56427;51.580;4.656;2024-02-26T05:17:59;99958.88;;;4.60;100.00
69306;BME280;56427;51.580;4.656;2024-02-26T05:20:25;99958.88;;;4.60;100.00
69306;BME280;56427;51.580;4.656;2024-02-26T05:22:50;99968.31;;;4.59;100.00
69306;BME280;56427;51.580;4.656;2024-02-26T05:25:16;99969.25;;;4.57;100.00
69306;BME280;56427;51.580;4.656;2024-02-26T05:27:42;99960.53;;;4.61;100.00
69306;BME280;56427;51.580;4.656;2024-02-26T05:30:09;99978.47;;;4.63;100.00
69306;BME280;56427;51.580;4.656;2024-02-26T05:32:34;99975.06;;;4.62;100.00
69306;BME280;56427;51.580;4.656;2024-02-26T05:34:59;99984.44;;;4.63;100.00
69306;BME280;56427;51.580;4.656;2024-02-26T05:37:25;99988.72;;;4.63;100.00
69306;BME280;56427;51.580;4.656;2024-02-26T05:39:50;99993.16;;;4.59;100.00
69306;BME280;56427;51.580;4.656;2024-02-26T05:42:15;99994.00;;;4.59;100.00
69306;BME280;56427;51.580;4.656;2024-02-26T05:44:41;99999.13;;;4.59;100.00
69306;BME280;56427;51.580;4.656;2024-02-26T05:47:06;100006.03;;;4.57;100.00
69306;BME280;56427;51.580;4.656;2024-02-26T05:49:31;100003.47;;;4.57;100.00
69306;BME280;56427;51.580;4.656;2024-02-26T05:51:57;100002.56;;;4.58;100.00
69306;BME280;56427;51.580;4.656;2024-02-26T05:54:23;100013.72;;;4.59;100.00
69306;BME280;56427;51.580;4.656;2024-02-26T05:56:48;100012.00;;;4.58;100.00
69306;BME280;56427;51.580;4.656;2024-02-26T05:59:13;100017.94;;;4.60;100.00
69306;BME280;56427;51.580;4.656;2024-02-26T06:01:40;100021.34;;;4.60;100.00
69306;BME280;56427;51.580;4.656;2024-02-26T06:04:06;100027.25;;;4.63;100.00
69306;BME280;56427;51.580;4.656;2024-02-26T06:06:31;100042.66;;;4.63;100.00
69306;BME280;56427;51.580;4.656;2024-02-26T06:08:57;100030.56;;;4.66;100.00
69306;BME280;56427;51.580;4.656;2024-02-26T06:11:22;100046.69;;;4.70;100.00
69306;BME280;56427;51.580;4.656;2024-02-26T06:13:48;100047.53;;;4.70;100.00
69306;BME280;56427;51.580;4.656;2024-02-26T06:16:13;100045.09;;;4.67;100.00
69306;BME280;56427;51.580;4.656;2024-02-26T06:18:38;100043.50;;;4.63;100.00
69306;BME280;56427;51.580;4.656;2024-02-26T06:21:04;100041.75;;;4.65;100.00
69306;BME280;56427;51.580;4.656;2024-02-26T06:23:29;100055.44;;;4.64;100.00
69306;BME280;56427;51.580;4.656;2024-02-26T06:25:55;100054.59;;;4.65;100.00
69306;BME280;56427;51.580;4.656;2024-02-26T06:28:20;100057.16;;;4.65;100.00
69306;BME280;56427;51.580;4.656;2024-02-26T06:30:45;100077.66;;;4.67;100.00
69306;BME280;56427;51.580;4.656;2024-02-26T06:33:11;100072.66;;;4.62;100.00
69306;BME280;56427;51.580;4.656;2024-02-26T06:35:37;100072.66;;;4.62;100.00
69306;BME280;56427;51.580;4.656;2024-02-26T06:38:03;100059.81;;;4.62;100.00
69306;BME280;56427;51.580;4.656;2024-02-26T06:40:29;100073.56;;;4.61;100.00
69306;BME280;56427;51.580;4.656;2024-02-26T06:42:54;100062.53;;;4.57;100.00
69306;BME280;56427;51.580;4.656;2024-02-26T06:45:20;100076.28;;;4.56;100.00
69306;BME280;56427;51.580;4.656;2024-02-26T06:47:45;100071.06;;;4.59;100.00
69306;BME280;56427;51.580;4.656;2024-02-26T06:50:12;100087.41;;;4.57;100.00
69306;BME280;56427;51.580;4.656;2024-02-26T06:52:38;100079.69;;;4.57;100.00
69306;BME280;56427;51.580;4.656;2024-02-26T06:55:04;100082.38;;;4.54;100.00
69306;BME280;56427;51.580;4.656;2024-02-26T06:57:30;100096.94;;;4.53;100.00
69306;BME280;56427;51.580;4.656;2024-02-26T06:59:55;100101.25;;;4.53;100.00
69306;BME280;56427;51.580;4.656;2024-02-26T07:02:21;100102.09;;;4.53;100.00
69306;BME280;56427;51.580;4.656;2024-02-26T07:04:46;100109.63;;;4.58;100.00
69306;BME280;56427;51.580;4.656;2024-02-26T07:07:12;100108.78;;;4.57;100.00
69306;BME280;56427;51.580;4.656;2024-02-26T07:09:42;100118.22;;;4.57;100.00
69306;BME280;56427;51.580;4.656;2024-02-26T07:12:09;100107.94;;;4.57;100.00
69306;BME280;56427;51.580;4.656;2024-02-26T07:14:34;100116.53;;;4.56;100.00
69306;BME280;56427;51.580;4.656;2024-02-26T07:16:59;100125.84;;;4.58;100.00
69306;BME280;56427;51.580;4.656;2024-02-26T07:19:25;100129.22;;;4.60;100.00
69306;BME280;56427;51.580;4.656;2024-02-26T07:21:50;100131.88;;;4.59;100.00
69306;BME280;56427;51.580;4.656;2024-02-26T07:24:16;100141.25;;;4.60;100.00
69306;BME280;56427;51.580;4.656;2024-02-26T07:26:41;100143.06;;;4.56;100.00
69306;BME280;56427;51.580;4.656;2024-02-26T07:29:06;100152.50;;;4.56;100.00
69306;BME280;56427;51.580;4.656;2024-02-26T07:31:32;100150.81;;;4.55;100.00
69306;BME280;56427;51.580;4.656;2024-02-26T07:33:57;100151.72;;;4.54;100.00
69306;BME280;56427;51.580;4.656;2024-02-26T07:36:23;100154.28;;;4.54;100.00
69306;BME280;56427;51.580;4.656;2024-02-26T07:38:48;100155.97;;;4.55;100.00
69306;BME280;56427;51.580;4.656;2024-02-26T07:41:13;100171.44;;;4.53;100.00
69306;BME280;56427;51.580;4.656;2024-02-26T07:43:39;100170.59;;;4.53;100.00
69306;BME280;56427;51.580;4.656;2024-02-26T07:46:06;100171.47;;;4.52;100.00
69306;BME280;56427;51.580;4.656;2024-02-26T07:48:31;100179.16;;;4.52;100.00
69306;BME280;56427;51.580;4.656;2024-02-26T07:50:57;100180.06;;;4.51;100.00
69306;BME280;56427;51.580;4.656;2024-02-26T07:53:24;100174.09;;;4.50;100.00
69306;BME280;56427;51.580;4.656;2024-02-26T07:55:49;100191.16;;;4.53;100.00
69306;BME280;56427;51.580;4.656;2024-02-26T07:58:14;100180.88;;;4.53;100.00
69306;BME280;56427;51.580;4.656;2024-02-26T08:00:40;100201.28;;;4.56;100.00
69306;BME280;56427;51.580;4.656;2024-02-26T08:03:05;100197.97;;;4.52;100.00
69306;BME280;56427;51.580;4.656;2024-02-26T08:05:30;100201.41;;;4.53;100.00
69306;BME280;56427;51.580;4.656;2024-02-26T08:07:56;100196.28;;;4.53;100.00
69306;BME280;56427;51.580;4.656;2024-02-26T08:10:21;100207.31;;;4.55;100.00
69306;BME280;56427;51.580;4.656;2024-02-26T08:12:46;100215.97;;;4.52;100.00
69306;BME280;56427;51.580;4.656;2024-02-26T08:15:12;100225.38;;;4.53;100.00
69306;BME280;56427;51.580;4.656;2024-02-26T08:17:37;100220.25;;;4.52;100.00
69306;BME280;56427;51.580;4.656;2024-02-26T08:20:04;100221.09;;;4.52;100.00
69306;BME280;56427;51.580;4.656;2024-02-26T08:22:29;100219.38;;;4.53;100.00
69306;BME280;56427;51.580;4.656;2024-02-26T08:24:55;100218.50;;;4.54;100.00
69306;BME280;56427;51.580;4.656;2024-02-26T08:27:20;100231.34;;;4.54;100.00
69306;BME280;56427;51.580;4.656;2024-02-26T08:29:46;100239.94;;;4.53;100.00
69306;BME280;56427;51.580;4.656;2024-02-26T08:32:11;100244.22;;;4.52;100.00
69306;BME280;56427;51.580;4.656;2024-02-26T08:34:36;100238.22;;;4.52;100.00
69306;BME280;56427;51.580;4.656;2024-02-26T08:37:02;100253.66;;;4.52;100.00
69306;BME280;56427;51.580;4.656;2024-02-26T08:39:27;100251.97;;;4.51;100.00
69306;BME280;56427;51.580;4.656;2024-02-26T08:41:53;100260.47;;;4.53;100.00
69306;BME280;56427;51.580;4.656;2024-02-26T08:44:18;100263.06;;;4.53;100.00
69306;BME280;56427;51.580;4.656;2024-02-26T08:46:43;100262.16;;;4.54;100.00
69306;BME280;56427;51.580;4.656;2024-02-26T08:49:10;100274.16;;;4.53;100.00
69306;BME280;56427;51.580;4.656;2024-02-26T08:51:41;100285.22;;;4.55;100.00
69306;BME280;56427;51.580;4.656;2024-02-26T08:54:06;100289.50;;;4.55;100.00
69306;BME280;56427;51.580;4.656;2024-02-26T08:56:32;100280.91;;;4.56;100.00
69306;BME280;56427;51.580;4.656;2024-02-26T08:58:57;100290.34;;;4.55;100.00
69306;BME280;56427;51.580;4.656;2024-02-26T09:01:24;100292.91;;;4.55;100.00
69306;BME280;56427;51.580;4.656;2024-02-26T09:03:49;100304.81;;;4.58;100.00
69306;BME280;56427;51.580;4.656;2024-02-26T09:06:15;100296.25;;;4.59;100.00
69306;BME280;56427;51.580;4.656;2024-02-26T09:08:40;100295.38;;;4.58;100.00
69306;BME280;56427;51.580;4.656;2024-02-26T09:11:06;100303.06;;;4.60;100.00
69306;BME280;56427;51.580;4.656;2024-02-26T09:13:31;100302.94;;;4.63;100.00
69306;BME280;56427;51.580;4.656;2024-02-26T09:15:57;100303.75;;;4.65;100.00
69306;BME280;56427;51.580;4.656;2024-02-26T09:18:23;100309.75;;;4.64;100.00
69306;BME280;56427;51.580;4.656;2024-02-26T09:20:49;100315.69;;;4.66;100.00
69306;BME280;56427;51.580;4.656;2024-02-26T09:23:16;100309.66;;;4.67;100.00
69306;BME280;56427;51.580;4.656;2024-02-26T09:25:41;100315.66;;;4.68;100.00
69306;BME280;56427;51.580;4.656;2024-02-26T09:28:06;100318.94;;;4.71;100.00
69306;BME280;56427;51.580;4.656;2024-02-26T09:30:31;100314.59;;;4.73;100.00
69306;BME280;56427;51.580;4.656;2024-02-26T09:32:57;100321.47;;;4.73;100.00
69306;BME280;56427;51.580;4.656;2024-02-26T09:35:22;100321.41;;;4.74;100.00
69306;BME280;56427;51.580;4.656;2024-02-26T09:37:47;100321.31;;;4.77;100.00
69306;BME280;56427;51.580;4.656;2024-02-26T09:40:14;100329.88;;;4.78;100.00
69306;BME280;56427;51.580;4.656;2024-02-26T09:42:44;100341.03;;;4.77;100.00
69306;BME280;56427;51.580;4.656;2024-02-26T09:45:21;100347.81;;;4.79;100.00
69306;BME280;56427;51.580;4.656;2024-02-26T09:47:48;100348.72;;;4.78;100.00
69306;BME280;56427;51.580;4.656;2024-02-26T09:50:14;100351.28;;;4.78;100.00
69306;BME280;56427;51.580;4.656;2024-02-26T09:52:42;100351.28;;;4.78;100.00
69306;BME280;56427;51.580;4.656;2024-02-26T09:55:09;100362.38;;;4.79;100.00
69306;BME280;56427;51.580;4.656;2024-02-26T09:57:37;100364.13;;;4.78;100.00
69306;BME280;56427;51.580;4.656;2024-02-26T10:00:04;100374.41;;;4.78;100.00
69306;BME280;56427;51.580;4.656;2024-02-26T10:02:33;100375.25;;;4.77;100.00
69306;BME280;56427;51.580;4.656;2024-02-26T10:04:59;100382.88;;;4.80;100.00
69306;BME280;56427;51.580;4.656;2024-02-26T10:07:30;100392.38;;;4.78;100.00
69306;BME280;56427;51.580;4.656;2024-02-26T10:09:56;100390.69;;;4.77;100.00
69306;BME280;56427;51.580;4.656;2024-02-26T10:12:23;100398.38;;;4.79;100.00
69306;BME280;56427;51.580;4.656;2024-02-26T10:14:50;100398.38;;;4.77;100.00
69306;BME280;56427;51.580;4.656;2024-02-26T10:17:16;100401.00;;;4.76;100.00
69306;BME280;56427;51.580;4.656;2024-02-26T10:19:43;100406.16;;;4.76;100.00
69306;BME280;56427;51.580;4.656;2024-02-26T10:22:08;100411.28;;;4.76;100.00
69306;BME280;56427;51.580;4.656;2024-02-26T10:24:33;100416.50;;;4.74;100.00
69306;BME280;56427;51.580;4.656;2024-02-26T10:26:59;100411.41;;;4.73;100.00
69306;BME280;56427;51.580;4.656;2024-02-26T10:29:25;100417.38;;;4.73;100.00
69306;BME280;56427;51.580;4.656;2024-02-26T10:31:51;100414.81;;;4.73;100.00
69306;BME280;56427;51.580;4.656;2024-02-26T10:34:17;100415.69;;;4.72;100.00
69306;BME280;56427;51.580;4.656;2024-02-26T10:36:43;100431.13;;;4.72;100.00
69306;BME280;56427;51.580;4.656;2024-02-26T10:39:09;100437.94;;;4.73;100.00
69306;BME280;56427;51.580;4.656;2024-02-26T10:41:36;100433.69;;;4.72;100.00
69306;BME280;56427;51.580;4.656;2024-02-26T10:44:02;100451.66;;;4.72;100.00
69306;BME280;56427;51.580;4.656;2024-02-26T10:46:28;100454.13;;;4.75;100.00
69306;BME280;56427;51.580;4.656;2024-02-26T10:48:54;100461.09;;;4.72;100.00
69306;BME280;56427;51.580;4.656;2024-02-26T10:51:26;100472.25;;;4.71;100.00
69306;BME280;56427;51.580;4.656;2024-02-26T10:53:55;100468.88;;;4.69;100.00
69306;BME280;56427;51.580;4.656;2024-02-26T10:56:26;100463.81;;;4.67;100.00
69306;BME280;56427;51.580;4.656;2024-02-26T10:58:55;100479.16;;;4.69;100.00
69306;BME280;56427;51.580;4.656;2024-02-26T11:01:22;100472.31;;;4.69;100.00
69306;BME280;56427;51.580;4.656;2024-02-26T11:03:51;100480.06;;;4.68;100.00
69306;BME280;56427;51.580;4.656;2024-02-26T11:06:17;100480.13;;;4.66;100.00
69306;BME280;56427;51.580;4.656;2024-02-26T11:08:43;100484.34;;;4.67;100.00
69306;BME280;56427;51.580;4.656;2024-02-26T11:11:10;100490.38;;;4.66;100.00
69306;BME280;56427;51.580;4.656;2024-02-26T11:13:40;100490.38;;;4.66;100.00
69306;BME280;56427;51.580;4.656;2024-02-26T11:16:09;100496.41;;;4.65;100.00
69306;BME280;56427;51.580;4.656;2024-02-26T11:18:35;100496.50;;;4.62;100.00
69306;BME280;56427;51.580;4.656;2024-02-26T11:21:02;100501.69;;;4.60;100.00
69306;BME280;56427;51.580;4.656;2024-02-26T11:23:28;100502.53;;;4.61;100.00
69306;BME280;56427;51.580;4.656;2024-02-26T11:25:56;100493.97;;;4.60;100.00
69306;BME280;56427;51.580;4.656;2024-02-26T11:28:26;100507.59;;;4.63;100.00
69306;BME280;56427;51.580;4.656;2024-02-26T11:30:53;100500.69;;;4.65;100.00
69306;BME280;56427;51.580;4.656;2024-02-26T11:33:20;100504.97;;;4.64;100.00
69306;BME280;56427;51.580;4.656;2024-02-26T11:35:45;100506.59;;;4.68;100.00
69306;BME280;56427;51.580;4.656;2024-02-26T11:38:20;100511.00;;;4.63;100.00
69306;BME280;56427;51.580;4.656;2024-02-26T11:40:49;100505.75;;;4.68;100.00
69306;BME280;56427;51.580;4.656;2024-02-26T11:43:15;100521.22;;;4.66;100.00
69306;BME280;56427;51.580;4.656;2024-02-26T11:48:15;100505.66;;;4.71;100.00
69306;BME280;56427;51.580;4.656;2024-02-26T11:50:41;100504.81;;;4.70;100.00
69306;BME280;56427;51.580;4.656;2024-02-26T11:53:32;100508.13;;;4.74;100.00
69306;BME280;56427;51.580;4.656;2024-02-26T11:59:04;100507.13;;;4.79;100.00
69306;BME280;56427;51.580;4.656;2024-02-26T12:04:28;100519.84;;;4.84;100.00
69306;BME280;56427;51.580;4.656;2024-02-26T12:06:56;100527.38;;;4.88;100.00
69306;BME280;56427;51.580;4.656;2024-02-26T12:09:31;100517.94;;;4.89;100.00
69306;BME280;56427;51.580;4.656;2024-02-26T12:11:56;100524.03;;;4.86;100.00
69306;BME280;56427;51.580;4.656;2024-02-26T12:14:25;100544.50;;;4.90;100.00
69306;BME280;56427;51.580;4.656;2024-02-26T12:16:51;100544.50;;;4.90;100.00
69306;BME280;56427;51.580;4.656;2024-02-26T12:19:17;100534.13;;;4.93;100.00
69306;BME280;56427;51.580;4.656;2024-02-26T12:21:42;100536.59;;;4.96;100.00
69306;BME280;56427;51.580;4.656;2024-02-26T12:24:13;100536.56;;;4.97;100.00
69306;BME280;56427;51.580;4.656;2024-02-26T12:26:39;100553.81;;;4.94;100.00
69306;BME280;56427;51.580;4.656;2024-02-26T12:29:05;100566.59;;;4.95;100.00
69306;BME280;56427;51.580;4.656;2024-02-26T12:31:32;100556.31;;;4.97;100.00
69306;BME280;56427;51.580;4.656;2024-02-26T12:33:58;100558.88;;;4.97;100.00
69306;BME280;56427;51.580;4.656;2024-02-26T12:36:24;100564.00;;;4.97;100.00
69306;BME280;56427;51.580;4.656;2024-02-26T12:38:53;100575.88;;;5.01;100.00
69306;BME280;56427;51.580;4.656;2024-02-26T12:41:18;100568.16;;;5.01;100.00
69306;BME280;56427;51.580;4.656;2024-02-26T12:43:44;100586.16;;;5.01;100.00
69306;BME280;56427;51.580;4.656;2024-02-26T12:46:11;100586.16;;;5.01;100.00
69306;BME280;56427;51.580;4.656;2024-02-26T12:48:38;100595.47;;;5.05;100.00
69306;BME280;56427;51.580;4.656;2024-02-26T12:51:04;100594.63;;;5.04;100.00
69306;BME280;56427;51.580;4.656;2024-02-26T12:53:30;100603.22;;;5.03;100.00
69306;BME280;56427;51.580;4.656;2024-02-26T12:55:55;100613.50;;;5.03;100.00
69306;BME280;56427;51.580;4.656;2024-02-26T12:58:21;100600.69;;;5.02;100.00